sensor_id;sensor_type;location;lat;lon;timestamp;P1;durP1;ratioP1;P2;durP2;ratioP2
36747;SDS011;22716;51.556;5.080;2023-04-25T00:00:07;9.60;;;4.47;;
36747;SDS011;22716;51.556;5.080;2023-04-25T00:02:36;9.67;;;4.50;;
36747;SDS011;22716;51.556;5.080;2023-04-25T00:05:06;22.23;;;5.03;;
36747;SDS011;22716;51.556;5.080;2023-04-25T00:07:36;8.20;;;3.93;;
36747;SDS011;22716;51.556;5.080;2023-04-25T00:10:08;11.07;;;4.10;;
36747;SDS011;22716;51.556;5.080;2023-04-25T00:12:39;11.50;;;4.00;;
36747;SDS011;22716;51.556;5.080;2023-04-25T00:15:08;7.83;;;4.60;;
36747;SDS011;22716;51.556;5.080;2023-04-25T00:17:38;11.03;;;4.73;;
36747;SDS011;22716;51.556;5.080;2023-04-25T00:20:08;10.40;;;5.00;;
36747;SDS011;22716;51.556;5.080;2023-04-25T00:22:38;15.30;;;6.03;;
36747;SDS011;22716;51.556;5.080;2023-04-25T00:25:10;9.53;;;4.93;;
36747;SDS011;22716;51.556;5.080;2023-04-25T00:27:38;15.27;;;5.27;;
36747;SDS011;22716;51.556;5.080;2023-04-25T00:30:08;17.60;;;5.57;;
36747;SDS011;22716;51.556;5.080;2023-04-25T00:32:38;13.43;;;5.00;;
36747;SDS011;22716;51.556;5.080;2023-04-25T00:35:07;13.70;;;4.93;;
36747;SDS011;22716;51.556;5.080;2023-04-25T00:37:37;14.17;;;5.77;;
36747;SDS011;22716;51.556;5.080;2023-04-25T00:40:06;18.17;;;5.23;;
36747;SDS011;22716;51.556;5.080;2023-04-25T00:42:38;13.37;;;5.37;;
36747;SDS011;22716;51.556;5.080;2023-04-25T00:45:08;17.60;;;6.03;;
36747;SDS011;22716;51.556;5.080;2023-04-25T00:47:42;14.03;;;5.73;;
36747;SDS011;22716;51.556;5.080;2023-04-25T00:50:11;9.93;;;5.53;;
36747;SDS011;22716;51.556;5.080;2023-04-25T00:52:41;11.50;;;4.20;;
36747;SDS011;22716;51.556;5.080;2023-04-25T00:55:15;21.13;;;6.27;;
36747;SDS011;22716;51.556;5.080;2023-04-25T00:57:44;14.73;;;4.67;;
36747;SDS011;22716;51.556;5.080;2023-04-25T01:00:13;14.10;;;5.60;;
36747;SDS011;22716;51.556;5.080;2023-04-25T01:02:43;20.97;;;4.80;;
36747;SDS011;22716;51.556;5.080;2023-04-25T01:05:13;18.17;;;5.23;;
36747;SDS011;22716;51.556;5.080;2023-04-25T01:07:44;23.20;;;5.97;;
36747;SDS011;22716;51.556;5.080;2023-04-25T01:10:15;15.67;;;5.33;;
36747;SDS011;22716;51.556;5.080;2023-04-25T01:12:44;9.93;;;5.23;;
36747;SDS011;22716;51.556;5.080;2023-04-25T01:15:13;19.30;;;5.07;;
36747;SDS011;22716;51.556;5.080;2023-04-25T01:17:42;19.67;;;6.40;;
36747;SDS011;22716;51.556;5.080;2023-04-25T01:20:12;10.07;;;5.43;;
36747;SDS011;22716;51.556;5.080;2023-04-25T01:22:45;12.83;;;5.10;;
36747;SDS011;22716;51.556;5.080;2023-04-25T01:25:14;18.33;;;5.90;;
36747;SDS011;22716;51.556;5.080;2023-04-25T01:27:43;13.07;;;6.00;;
36747;SDS011;22716;51.556;5.080;2023-04-25T01:30:12;18.03;;;5.27;;
36747;SDS011;22716;51.556;5.080;2023-04-25T01:32:42;11.47;;;3.83;;
36747;SDS011;22716;51.556;5.080;2023-04-25T01:35:11;13.27;;;3.97;;
36747;SDS011;22716;51.556;5.080;2023-04-25T01:37:40;15.20;;;4.73;;
36747;SDS011;22716;51.556;5.080;2023-04-25T01:40:13;13.13;;;4.03;;
36747;SDS011;22716;51.556;5.080;2023-04-25T01:42:43;16.03;;;4.47;;
36747;SDS011;22716;51.556;5.080;2023-04-25T01:45:12;19.83;;;4.93;;
36747;SDS011;22716;51.556;5.080;2023-04-25T01:47:41;14.10;;;4.57;;
36747;SDS011;22716;51.556;5.080;2023-04-25T01:50:14;22.67;;;6.00;;
36747;SDS011;22716;51.556;5.080;2023-04-25T01:52:43;9.90;;;3.57;;
36747;SDS011;22716;51.556;5.080;2023-04-25T01:55:15;18.93;;;4.30;;
36747;SDS011;22716;51.556;5.080;2023-04-25T01:57:44;18.90;;;5.07;;
36747;SDS011;22716;51.556;5.080;2023-04-25T02:00:13;17.10;;;5.00;;
36747;SDS011;22716;51.556;5.080;2023-04-25T02:02:42;12.03;;;4.20;;
36747;SDS011;22716;51.556;5.080;2023-04-25T02:05:11;20.93;;;5.93;;
36747;SDS011;22716;51.556;5.080;2023-04-25T02:07:40;15.80;;;3.97;;
36747;SDS011;22716;51.556;5.080;2023-04-25T02:10:09;14.50;;;4.43;;
36747;SDS011;22716;51.556;5.080;2023-04-25T02:12:40;15.90;;;4.97;;
36747;SDS011;22716;51.556;5.080;2023-04-25T02:15:10;20.70;;;5.40;;
36747;SDS011;22716;51.556;5.080;2023-04-25T02:17:39;10.33;;;4.93;;
36747;SDS011;22716;51.556;5.080;2023-04-25T02:20:08;14.30;;;4.47;;
36747;SDS011;22716;51.556;5.080;2023-04-25T02:22:38;12.87;;;4.87;;
36747;SDS011;22716;51.556;5.080;2023-04-25T02:25:08;15.87;;;4.87;;
36747;SDS011;22716;51.556;5.080;2023-04-25T02:27:42;18.70;;;5.60;;
36747;SDS011;22716;51.556;5.080;2023-04-25T02:30:12;17.37;;;6.00;;
36747;SDS011;22716;51.556;5.080;2023-04-25T02:32:41;17.77;;;5.03;;
36747;SDS011;22716;51.556;5.080;2023-04-25T02:35:10;24.03;;;4.90;;
36747;SDS011;22716;51.556;5.080;2023-04-25T02:37:38;19.53;;;5.47;;
36747;SDS011;22716;51.556;5.080;2023-04-25T02:40:08;12.87;;;5.33;;
36747;SDS011;22716;51.556;5.080;2023-04-25T02:42:38;15.57;;;5.63;;
36747;SDS011;22716;51.556;5.080;2023-04-25T02:45:10;13.93;;;4.80;;
36747;SDS011;22716;51.556;5.080;2023-04-25T02:47:39;15.73;;;5.47;;
36747;SDS011;22716;51.556;5.080;2023-04-25T02:50:08;19.23;;;6.43;;
36747;SDS011;22716;51.556;5.080;2023-04-25T02:52:37;18.50;;;4.40;;
36747;SDS011;22716;51.556;5.080;2023-04-25T02:55:07;17.13;;;5.87;;
36747;SDS011;22716;51.556;5.080;2023-04-25T02:57:37;16.47;;;5.57;;
36747;SDS011;22716;51.556;5.080;2023-04-25T03:00:07;15.50;;;4.00;;
36747;SDS011;22716;51.556;5.080;2023-04-25T03:02:39;13.43;;;4.67;;
36747;SDS011;22716;51.556;5.080;2023-04-25T03:05:08;13.93;;;5.07;;
36747;SDS011;22716;51.556;5.080;2023-04-25T03:07:37;19.33;;;4.93;;
36747;SDS011;22716;51.556;5.080;2023-04-25T03:10:09;15.57;;;6.00;;
36747;SDS011;22716;51.556;5.080;2023-04-25T03:12:39;18.40;;;4.93;;
36747;SDS011;22716;51.556;5.080;2023-04-25T03:15:10;21.43;;;5.67;;
36747;SDS011;22716;51.556;5.080;2023-04-25T03:17:39;12.10;;;5.00;;
36747;SDS011;22716;51.556;5.080;2023-04-25T03:20:09;10.57;;;5.20;;
36747;SDS011;22716;51.556;5.080;2023-04-25T03:22:38;11.70;;;4.47;;
36747;SDS011;22716;51.556;5.080;2023-04-25T03:25:07;8.90;;;4.17;;
36747;SDS011;22716;51.556;5.080;2023-04-25T03:27:36;14.90;;;6.23;;
36747;SDS011;22716;51.556;5.080;2023-04-25T03:30:06;16.40;;;4.47;;
36747;SDS011;22716;51.556;5.080;2023-04-25T03:32:39;15.67;;;4.97;;
36747;SDS011;22716;51.556;5.080;2023-04-25T03:35:08;14.57;;;5.17;;
36747;SDS011;22716;51.556;5.080;2023-04-25T03:37:37;15.03;;;4.87;;
36747;SDS011;22716;51.556;5.080;2023-04-25T03:40:06;14.83;;;4.63;;
36747;SDS011;22716;51.556;5.080;2023-04-25T03:42:36;8.07;;;4.37;;
36747;SDS011;22716;51.556;5.080;2023-04-25T03:45:05;23.87;;;4.70;;
36747;SDS011;22716;51.556;5.080;2023-04-25T03:47:39;11.80;;;3.67;;
36747;SDS011;22716;51.556;5.080;2023-04-25T03:50:08;10.10;;;3.43;;
36747;SDS011;22716;51.556;5.080;2023-04-25T03:52:37;23.97;;;5.27;;
36747;SDS011;22716;51.556;5.080;2023-04-25T03:55:07;21.00;;;4.60;;
36747;SDS011;22716;51.556;5.080;2023-04-25T03:57:37;17.90;;;5.87;;
36747;SDS011;22716;51.556;5.080;2023-04-25T04:00:06;18.33;;;5.23;;
36747;SDS011;22716;51.556;5.080;2023-04-25T04:02:36;12.60;;;4.43;;
36747;SDS011;22716;51.556;5.080;2023-04-25T04:05:07;13.60;;;4.40;;
36747;SDS011;22716;51.556;5.080;2023-04-25T04:07:36;10.87;;;4.03;;
36747;SDS011;22716;51.556;5.080;2023-04-25T04:10:06;15.60;;;5.37;;
36747;SDS011;22716;51.556;5.080;2023-04-25T04:12:35;13.53;;;4.67;;
36747;SDS011;22716;51.556;5.080;2023-04-25T04:15:04;13.40;;;3.57;;
36747;SDS011;22716;51.556;5.080;2023-04-25T04:17:35;15.17;;;5.33;;
36747;SDS011;22716;51.556;5.080;2023-04-25T04:20:07;23.23;;;5.60;;
36747;SDS011;22716;51.556;5.080;2023-04-25T04:22:36;14.37;;;4.60;;
36747;SDS011;22716;51.556;5.080;2023-04-25T04:25:06;18.47;;;5.33;;
36747;SDS011;22716;51.556;5.080;2023-04-25T04:27:37;13.43;;;4.27;;
36747;SDS011;22716;51.556;5.080;2023-04-25T04:30:07;11.13;;;4.50;;
36747;SDS011;22716;51.556;5.080;2023-04-25T04:32:36;14.73;;;5.50;;
36747;SDS011;22716;51.556;5.080;2023-04-25T04:35:08;24.03;;;5.73;;
36747;SDS011;22716;51.556;5.080;2023-04-25T04:37:37;12.47;;;5.40;;
36747;SDS011;22716;51.556;5.080;2023-04-25T04:40:06;16.17;;;4.73;;
36747;SDS011;22716;51.556;5.080;2023-04-25T04:42:37;17.63;;;5.10;;
36747;SDS011;22716;51.556;5.080;2023-04-25T04:45:07;10.37;;;4.33;;
36747;SDS011;22716;51.556;5.080;2023-04-25T04:47:36;20.00;;;5.37;;
36747;SDS011;22716;51.556;5.080;2023-04-25T04:50:08;17.90;;;6.63;;
36747;SDS011;22716;51.556;5.080;2023-04-25T04:52:38;15.27;;;4.90;;
36747;SDS011;22716;51.556;5.080;2023-04-25T04:55:08;11.73;;;3.87;;
36747;SDS011;22716;51.556;5.080;2023-04-25T04:57:37;15.20;;;5.20;;
36747;SDS011;22716;51.556;5.080;2023-04-25T05:00:07;18.83;;;4.27;;
36747;SDS011;22716;51.556;5.080;2023-04-25T05:02:37;11.83;;;3.90;;
36747;SDS011;22716;51.556;5.080;2023-04-25T05:05:09;9.87;;;3.70;;
36747;SDS011;22716;51.556;5.080;2023-04-25T05:07:38;10.00;;;3.57;;
36747;SDS011;22716;51.556;5.080;2023-04-25T05:10:07;15.67;;;4.40;;
36747;SDS011;22716;51.556;5.080;2023-04-25T05:12:37;10.17;;;3.30;;
36747;SDS011;22716;51.556;5.080;2023-04-25T05:15:06;7.87;;;2.70;;
36747;SDS011;22716;51.556;5.080;2023-04-25T05:17:35;11.70;;;4.57;;
36747;SDS011;22716;51.556;5.080;2023-04-25T05:20:05;6.00;;;2.87;;
36747;SDS011;22716;51.556;5.080;2023-04-25T05:22:37;11.60;;;4.10;;
36747;SDS011;22716;51.556;5.080;2023-04-25T05:25:07;16.13;;;3.90;;
36747;SDS011;22716;51.556;5.080;2023-04-25T05:27:37;6.00;;;3.40;;
36747;SDS011;22716;51.556;5.080;2023-04-25T05:30:07;12.50;;;3.73;;
36747;SDS011;22716;51.556;5.080;2023-04-25T05:32:37;12.50;;;4.50;;
36747;SDS011;22716;51.556;5.080;2023-04-25T05:35:06;10.80;;;3.90;;
36747;SDS011;22716;51.556;5.080;2023-04-25T05:37:38;8.60;;;2.60;;
36747;SDS011;22716;51.556;5.080;2023-04-25T05:40:08;13.90;;;2.90;;
36747;SDS011;22716;51.556;5.080;2023-04-25T05:42:37;8.43;;;2.40;;
36747;SDS011;22716;51.556;5.080;2023-04-25T05:45:06;11.13;;;2.80;;
36747;SDS011;22716;51.556;5.080;2023-04-25T05:47:35;9.17;;;3.13;;
36747;SDS011;22716;51.556;5.080;2023-04-25T05:50:06;15.33;;;2.40;;
36747;SDS011;22716;51.556;5.080;2023-04-25T05:52:39;15.77;;;3.07;;
36747;SDS011;22716;51.556;5.080;2023-04-25T05:55:08;5.17;;;2.10;;
36747;SDS011;22716;51.556;5.080;2023-04-25T05:57:37;6.83;;;2.67;;
36747;SDS011;22716;51.556;5.080;2023-04-25T06:00:08;7.70;;;2.47;;
36747;SDS011;22716;51.556;5.080;2023-04-25T06:02:38;7.57;;;3.03;;
36747;SDS011;22716;51.556;5.080;2023-04-25T06:05:08;9.23;;;2.30;;
36747;SDS011;22716;51.556;5.080;2023-04-25T06:07:39;6.87;;;2.50;;
36747;SDS011;22716;51.556;5.080;2023-04-25T06:10:09;9.57;;;2.90;;
36747;SDS011;22716;51.556;5.080;2023-04-25T06:12:37;10.43;;;4.03;;
36747;SDS011;22716;51.556;5.080;2023-04-25T06:15:07;9.07;;;2.83;;
36747;SDS011;22716;51.556;5.080;2023-04-25T06:17:37;8.13;;;3.47;;
36747;SDS011;22716;51.556;5.080;2023-04-25T06:20:07;6.70;;;2.80;;
36747;SDS011;22716;51.556;5.080;2023-04-25T06:22:40;7.53;;;2.83;;
36747;SDS011;22716;51.556;5.080;2023-04-25T06:25:09;13.73;;;3.70;;
36747;SDS011;22716;51.556;5.080;2023-04-25T06:27:37;4.77;;;1.93;;
36747;SDS011;22716;51.556;5.080;2023-04-25T06:30:07;10.17;;;3.43;;
36747;SDS011;22716;51.556;5.080;2023-04-25T06:32:37;14.90;;;3.03;;
36747;SDS011;22716;51.556;5.080;2023-04-25T06:35:06;6.50;;;2.10;;
36747;SDS011;22716;51.556;5.080;2023-04-25T06:37:36;8.53;;;2.20;;
36747;SDS011;22716;51.556;5.080;2023-04-25T06:40:09;8.47;;;2.37;;
36747;SDS011;22716;51.556;5.080;2023-04-25T06:42:38;7.83;;;2.40;;
36747;SDS011;22716;51.556;5.080;2023-04-25T06:45:07;6.43;;;2.20;;
36747;SDS011;22716;51.556;5.080;2023-04-25T06:47:37;6.57;;;2.63;;
36747;SDS011;22716;51.556;5.080;2023-04-25T06:50:07;5.43;;;1.90;;
36747;SDS011;22716;51.556;5.080;2023-04-25T06:52:36;13.57;;;3.07;;
36747;SDS011;22716;51.556;5.080;2023-04-25T06:55:05;11.60;;;3.17;;
36747;SDS011;22716;51.556;5.080;2023-04-25T06:57:37;11.63;;;2.63;;
36747;SDS011;22716;51.556;5.080;2023-04-25T07:00:07;8.47;;;2.13;;
36747;SDS011;22716;51.556;5.080;2023-04-25T07:02:39;10.17;;;2.43;;
36747;SDS011;22716;51.556;5.080;2023-04-25T07:05:09;5.97;;;2.10;;
36747;SDS011;22716;51.556;5.080;2023-04-25T07:07:37;9.07;;;2.30;;
36747;SDS011;22716;51.556;5.080;2023-04-25T07:10:09;22.87;;;2.37;;
36747;SDS011;22716;51.556;5.080;2023-04-25T07:12:37;11.27;;;2.50;;
36747;SDS011;22716;51.556;5.080;2023-04-25T07:15:07;8.67;;;2.40;;
36747;SDS011;22716;51.556;5.080;2023-04-25T07:17:36;5.10;;;1.70;;
36747;SDS011;22716;51.556;5.080;2023-04-25T07:20:06;5.50;;;1.90;;
36747;SDS011;22716;51.556;5.080;2023-04-25T07:22:37;5.17;;;1.53;;
36747;SDS011;22716;51.556;5.080;2023-04-25T07:25:06;8.87;;;1.97;;
36747;SDS011;22716;51.556;5.080;2023-04-25T07:27:38;7.23;;;1.90;;
36747;SDS011;22716;51.556;5.080;2023-04-25T07:30:07;8.83;;;2.20;;
36747;SDS011;22716;51.556;5.080;2023-04-25T07:32:37;7.00;;;1.83;;
36747;SDS011;22716;51.556;5.080;2023-04-25T07:35:07;4.40;;;1.50;;
36747;SDS011;22716;51.556;5.080;2023-04-25T07:37:37;7.53;;;2.23;;
36747;SDS011;22716;51.556;5.080;2023-04-25T07:40:06;4.80;;;2.27;;
36747;SDS011;22716;51.556;5.080;2023-04-25T07:42:41;8.67;;;2.03;;
36747;SDS011;22716;51.556;5.080;2023-04-25T07:45:10;11.87;;;2.57;;
36747;SDS011;22716;51.556;5.080;2023-04-25T07:47:39;7.43;;;2.07;;
36747;SDS011;22716;51.556;5.080;2023-04-25T07:50:08;11.23;;;3.13;;
36747;SDS011;22716;51.556;5.080;2023-04-25T07:52:38;5.83;;;1.80;;
36747;SDS011;22716;51.556;5.080;2023-04-25T07:55:07;15.60;;;9.83;;
36747;SDS011;22716;51.556;5.080;2023-04-25T07:57:39;7.77;;;2.50;;
36747;SDS011;22716;51.556;5.080;2023-04-25T08:00:09;4.50;;;2.13;;
36747;SDS011;22716;51.556;5.080;2023-04-25T08:02:40;7.53;;;1.87;;
36747;SDS011;22716;51.556;5.080;2023-04-25T08:05:09;7.60;;;1.23;;
36747;SDS011;22716;51.556;5.080;2023-04-25T08:07:39;7.27;;;1.80;;
36747;SDS011;22716;51.556;5.080;2023-04-25T08:10:11;6.27;;;2.33;;
36747;SDS011;22716;51.556;5.080;2023-04-25T08:12:40;5.90;;;2.63;;
36747;SDS011;22716;51.556;5.080;2023-04-25T08:15:09;7.03;;;1.77;;
36747;SDS011;22716;51.556;5.080;2023-04-25T08:17:39;4.67;;;1.47;;
36747;SDS011;22716;51.556;5.080;2023-04-25T08:20:10;11.87;;;2.00;;
36747;SDS011;22716;51.556;5.080;2023-04-25T08:22:40;6.97;;;2.57;;
36747;SDS011;22716;51.556;5.080;2023-04-25T08:25:11;6.20;;;2.27;;
36747;SDS011;22716;51.556;5.080;2023-04-25T08:27:40;6.33;;;1.50;;
36747;SDS011;22716;51.556;5.080;2023-04-25T08:30:09;13.23;;;2.40;;
36747;SDS011;22716;51.556;5.080;2023-04-25T08:32:38;6.77;;;2.00;;
36747;SDS011;22716;51.556;5.080;2023-04-25T08:35:07;6.13;;;1.93;;
36747;SDS011;22716;51.556;5.080;2023-04-25T08:37:36;5.30;;;1.40;;
36747;SDS011;22716;51.556;5.080;2023-04-25T08:40:06;7.00;;;1.80;;
36747;SDS011;22716;51.556;5.080;2023-04-25T08:42:42;4.53;;;1.80;;
36747;SDS011;22716;51.556;5.080;2023-04-25T08:45:11;9.47;;;2.20;;
36747;SDS011;22716;51.556;5.080;2023-04-25T08:47:40;6.80;;;1.40;;
36747;SDS011;22716;51.556;5.080;2023-04-25T08:50:10;8.13;;;2.53;;
36747;SDS011;22716;51.556;5.080;2023-04-25T08:52:41;9.30;;;2.77;;
36747;SDS011;22716;51.556;5.080;2023-04-25T08:55:16;6.38;;;1.23;;
36747;SDS011;22716;51.556;5.080;2023-04-25T08:57:46;7.17;;;1.73;;
36747;SDS011;22716;51.556;5.080;2023-04-25T09:00:16;6.20;;;1.67;;
36747;SDS011;22716;51.556;5.080;2023-04-25T09:02:46;6.43;;;1.93;;
36747;SDS011;22716;51.556;5.080;2023-04-25T09:05:16;7.70;;;1.77;;
36747;SDS011;22716;51.556;5.080;2023-04-25T09:07:45;14.20;;;2.80;;
36747;SDS011;22716;51.556;5.080;2023-04-25T09:10:16;7.37;;;1.93;;
36747;SDS011;22716;51.556;5.080;2023-04-25T09:12:45;6.47;;;1.47;;
36747;SDS011;22716;51.556;5.080;2023-04-25T09:15:31;4.87;;;1.50;;
36747;SDS011;22716;51.556;5.080;2023-04-25T09:18:01;4.97;;;1.47;;
36747;SDS011;22716;51.556;5.080;2023-04-25T09:20:30;30.70;;;22.83;;
36747;SDS011;22716;51.556;5.080;2023-04-25T09:23:02;33.67;;;22.47;;
36747;SDS011;22716;51.556;5.080;2023-04-25T09:25:38;39.15;;;27.83;;
36747;SDS011;22716;51.556;5.080;2023-04-25T09:28:08;5.40;;;2.20;;
36747;SDS011;22716;51.556;5.080;2023-04-25T09:30:39;5.50;;;2.10;;
36747;SDS011;22716;51.556;5.080;2023-04-25T09:33:09;13.43;;;2.10;;
36747;SDS011;22716;51.556;5.080;2023-04-25T09:35:40;4.93;;;1.80;;
36747;SDS011;22716;51.556;5.080;2023-04-25T09:38:11;10.37;;;2.37;;
36747;SDS011;22716;51.556;5.080;2023-04-25T09:40:46;4.77;;;1.60;;
36747;SDS011;22716;51.556;5.080;2023-04-25T09:43:19;6.93;;;1.33;;
36747;SDS011;22716;51.556;5.080;2023-04-25T09:45:49;5.47;;;1.13;;
36747;SDS011;22716;51.556;5.080;2023-04-25T09:48:18;3.73;;;1.87;;
36747;SDS011;22716;51.556;5.080;2023-04-25T09:50:52;7.00;;;1.47;;
36747;SDS011;22716;51.556;5.080;2023-04-25T09:53:33;3.07;;;1.20;;
36747;SDS011;22716;51.556;5.080;2023-04-25T09:56:06;2.53;;;1.27;;
36747;SDS011;22716;51.556;5.080;2023-04-25T09:58:36;2.67;;;1.15;;
36747;SDS011;22716;51.556;5.080;2023-04-25T10:01:09;1.77;;;0.90;;
36747;SDS011;22716;51.556;5.080;2023-04-25T10:03:39;2.97;;;1.00;;
36747;SDS011;22716;51.556;5.080;2023-04-25T10:06:09;6.63;;;1.60;;
36747;SDS011;22716;51.556;5.080;2023-04-25T10:08:40;5.63;;;2.37;;
36747;SDS011;22716;51.556;5.080;2023-04-25T10:11:14;4.67;;;1.73;;
36747;SDS011;22716;51.556;5.080;2023-04-25T10:13:44;4.00;;;1.70;;
36747;SDS011;22716;51.556;5.080;2023-04-25T10:16:14;9.50;;;1.70;;
36747;SDS011;22716;51.556;5.080;2023-04-25T10:18:43;2.57;;;1.80;;
36747;SDS011;22716;51.556;5.080;2023-04-25T10:21:11;4.43;;;1.60;;
36747;SDS011;22716;51.556;5.080;2023-04-25T10:23:43;6.97;;;1.60;;
36747;SDS011;22716;51.556;5.080;2023-04-25T10:26:16;5.13;;;1.40;;
36747;SDS011;22716;51.556;5.080;2023-04-25T10:28:54;3.53;;;1.30;;
36747;SDS011;22716;51.556;5.080;2023-04-25T10:31:24;6.17;;;1.53;;
36747;SDS011;22716;51.556;5.080;2023-04-25T10:33:53;11.37;;;1.93;;
36747;SDS011;22716;51.556;5.080;2023-04-25T10:36:22;4.77;;;1.83;;
36747;SDS011;22716;51.556;5.080;2023-04-25T10:38:52;12.77;;;1.63;;
36747;SDS011;22716;51.556;5.080;2023-04-25T10:41:26;5.97;;;2.10;;
36747;SDS011;22716;51.556;5.080;2023-04-25T10:43:59;4.63;;;1.63;;
36747;SDS011;22716;51.556;5.080;2023-04-25T10:46:29;7.15;;;1.40;;
36747;SDS011;22716;51.556;5.080;2023-04-25T10:49:01;7.47;;;1.83;;
36747;SDS011;22716;51.556;5.080;2023-04-25T10:51:31;9.97;;;1.73;;
36747;SDS011;22716;51.556;5.080;2023-04-25T10:54:01;2.87;;;1.07;;
36747;SDS011;22716;51.556;5.080;2023-04-25T10:56:36;4.83;;;1.67;;
36747;SDS011;22716;51.556;5.080;2023-04-25T10:59:10;4.03;;;1.30;;
36747;SDS011;22716;51.556;5.080;2023-04-25T11:01:41;10.43;;;2.63;;
36747;SDS011;22716;51.556;5.080;2023-04-25T11:04:20;5.47;;;1.27;;
36747;SDS011;22716;51.556;5.080;2023-04-25T11:07:00;5.93;;;1.47;;
36747;SDS011;22716;51.556;5.080;2023-04-25T11:09:35;10.70;;;2.57;;
36747;SDS011;22716;51.556;5.080;2023-04-25T11:12:09;7.17;;;1.53;;
36747;SDS011;22716;51.556;5.080;2023-04-25T11:14:40;2.87;;;1.20;;
36747;SDS011;22716;51.556;5.080;2023-04-25T11:17:09;7.90;;;2.80;;
36747;SDS011;22716;51.556;5.080;2023-04-25T11:19:38;6.27;;;1.67;;
36747;SDS011;22716;51.556;5.080;2023-04-25T11:22:07;5.67;;;1.70;;
36747;SDS011;22716;51.556;5.080;2023-04-25T11:24:36;10.67;;;2.80;;
36747;SDS011;22716;51.556;5.080;2023-04-25T11:27:04;5.17;;;1.30;;
36747;SDS011;22716;51.556;5.080;2023-04-25T11:29:36;6.40;;;1.83;;
36747;SDS011;22716;51.556;5.080;2023-04-25T11:32:05;6.50;;;2.43;;
36747;SDS011;22716;51.556;5.080;2023-04-25T11:34:34;2.10;;;1.23;;
36747;SDS011;22716;51.556;5.080;2023-04-25T11:37:03;10.27;;;1.60;;
36747;SDS011;22716;51.556;5.080;2023-04-25T11:39:32;6.57;;;1.33;;
36747;SDS011;22716;51.556;5.080;2023-04-25T11:42:01;5.17;;;1.50;;
36747;SDS011;22716;51.556;5.080;2023-04-25T11:44:32;4.67;;;1.43;;
36747;SDS011;22716;51.556;5.080;2023-04-25T11:47:03;6.30;;;1.77;;
36747;SDS011;22716;51.556;5.080;2023-04-25T11:49:32;5.07;;;1.70;;
36747;SDS011;22716;51.556;5.080;2023-04-25T11:52:01;3.13;;;1.20;;
36747;SDS011;22716;51.556;5.080;2023-04-25T11:54:30;5.67;;;1.50;;
36747;SDS011;22716;51.556;5.080;2023-04-25T11:56:58;2.83;;;1.10;;
36747;SDS011;22716;51.556;5.080;2023-04-25T11:59:27;2.20;;;1.00;;
36747;SDS011;22716;51.556;5.080;2023-04-25T12:01:56;6.17;;;1.83;;
36747;SDS011;22716;51.556;5.080;2023-04-25T12:04:30;4.87;;;1.37;;
36747;SDS011;22716;51.556;5.080;2023-04-25T12:07:00;3.47;;;1.27;;
36747;SDS011;22716;51.556;5.080;2023-04-25T12:09:29;2.37;;;1.60;;
36747;SDS011;22716;51.556;5.080;2023-04-25T12:12:00;3.10;;;1.80;;
36747;SDS011;22716;51.556;5.080;2023-04-25T12:14:32;6.27;;;2.17;;
36747;SDS011;22716;51.556;5.080;2023-04-25T12:17:03;5.07;;;1.40;;
36747;SDS011;22716;51.556;5.080;2023-04-25T12:19:36;5.37;;;2.07;;
36747;SDS011;22716;51.556;5.080;2023-04-25T12:22:18;9.60;;;1.20;;
36747;SDS011;22716;51.556;5.080;2023-04-25T12:24:48;3.07;;;1.33;;
36747;SDS011;22716;51.556;5.080;2023-04-25T12:27:19;4.20;;;1.93;;
36747;SDS011;22716;51.556;5.080;2023-04-25T12:29:51;3.13;;;1.20;;
36747;SDS011;22716;51.556;5.080;2023-04-25T12:32:21;5.28;;;1.60;;
36747;SDS011;22716;51.556;5.080;2023-04-25T12:34:53;4.67;;;1.67;;
36747;SDS011;22716;51.556;5.080;2023-04-25T12:37:22;4.33;;;1.20;;
36747;SDS011;22716;51.556;5.080;2023-04-25T12:39:51;5.53;;;1.60;;
36747;SDS011;22716;51.556;5.080;2023-04-25T12:42:20;4.63;;;1.50;;
36747;SDS011;22716;51.556;5.080;2023-04-25T12:44:49;5.80;;;1.27;;
36747;SDS011;22716;51.556;5.080;2023-04-25T12:47:18;3.97;;;1.27;;
36747;SDS011;22716;51.556;5.080;2023-04-25T12:49:46;3.47;;;1.40;;
36747;SDS011;22716;51.556;5.080;2023-04-25T12:52:18;2.90;;;1.60;;
36747;SDS011;22716;51.556;5.080;2023-04-25T12:54:47;11.73;;;1.97;;
36747;SDS011;22716;51.556;5.080;2023-04-25T12:57:16;1.47;;;0.90;;
36747;SDS011;22716;51.556;5.080;2023-04-25T12:59:44;9.73;;;1.70;;
36747;SDS011;22716;51.556;5.080;2023-04-25T13:02:13;7.03;;;1.37;;
36747;SDS011;22716;51.556;5.080;2023-04-25T13:04:42;4.83;;;1.73;;
36747;SDS011;22716;51.556;5.080;2023-04-25T13:07:11;6.50;;;1.80;;
36747;SDS011;22716;51.556;5.080;2023-04-25T13:09:42;5.60;;;1.30;;
36747;SDS011;22716;51.556;5.080;2023-04-25T13:12:11;6.40;;;1.17;;
36747;SDS011;22716;51.556;5.080;2023-04-25T13:14:41;4.03;;;1.40;;
36747;SDS011;22716;51.556;5.080;2023-04-25T13:17:09;4.87;;;1.37;;
36747;SDS011;22716;51.556;5.080;2023-04-25T13:19:38;9.93;;;2.07;;
36747;SDS011;22716;51.556;5.080;2023-04-25T13:22:07;6.07;;;1.83;;
36747;SDS011;22716;51.556;5.080;2023-04-25T13:24:36;27.47;;;18.53;;
36747;SDS011;22716;51.556;5.080;2023-04-25T13:27:07;22.63;;;11.47;;
36747;SDS011;22716;51.556;5.080;2023-04-25T13:29:36;5.57;;;3.27;;
36747;SDS011;22716;51.556;5.080;2023-04-25T13:32:05;4.60;;;1.67;;
36747;SDS011;22716;51.556;5.080;2023-04-25T13:34:35;3.13;;;2.03;;
36747;SDS011;22716;51.556;5.080;2023-04-25T13:37:03;3.07;;;2.00;;
36747;SDS011;22716;51.556;5.080;2023-04-25T13:39:32;3.20;;;1.50;;
36747;SDS011;22716;51.556;5.080;2023-04-25T13:42:01;7.20;;;1.63;;
36747;SDS011;22716;51.556;5.080;2023-04-25T13:44:32;4.63;;;1.37;;
36747;SDS011;22716;51.556;5.080;2023-04-25T13:47:01;2.30;;;1.30;;
36747;SDS011;22716;51.556;5.080;2023-04-25T13:49:30;3.50;;;1.63;;
36747;SDS011;22716;51.556;5.080;2023-04-25T13:51:59;4.67;;;1.30;;
36747;SDS011;22716;51.556;5.080;2023-04-25T13:54:28;3.27;;;2.03;;
36747;SDS011;22716;51.556;5.080;2023-04-25T13:56:56;3.37;;;1.33;;
36747;SDS011;22716;51.556;5.080;2023-04-25T13:59:25;2.67;;;1.60;;
36747;SDS011;22716;51.556;5.080;2023-04-25T14:01:57;3.60;;;1.30;;
36747;SDS011;22716;51.556;5.080;2023-04-25T14:04:25;1.47;;;0.87;;
36747;SDS011;22716;51.556;5.080;2023-04-25T14:06:55;6.67;;;1.93;;
36747;SDS011;22716;51.556;5.080;2023-04-25T14:09:24;5.77;;;1.20;;
36747;SDS011;22716;51.556;5.080;2023-04-25T14:11:53;3.10;;;1.43;;
36747;SDS011;22716;51.556;5.080;2023-04-25T14:14:23;4.47;;;1.23;;
36747;SDS011;22716;51.556;5.080;2023-04-25T14:16:52;9.23;;;1.40;;
36747;SDS011;22716;51.556;5.080;2023-04-25T14:19:25;5.03;;;1.33;;
36747;SDS011;22716;51.556;5.080;2023-04-25T14:21:54;8.27;;;2.43;;
36747;SDS011;22716;51.556;5.080;2023-04-25T14:24:23;8.13;;;2.10;;
36747;SDS011;22716;51.556;5.080;2023-04-25T14:26:52;2.97;;;1.30;;
36747;SDS011;22716;51.556;5.080;2023-04-25T14:29:21;2.10;;;1.13;;
36747;SDS011;22716;51.556;5.080;2023-04-25T14:31:49;1.37;;;0.70;;
36747;SDS011;22716;51.556;5.080;2023-04-25T14:34:18;3.37;;;0.80;;
36747;SDS011;22716;51.556;5.080;2023-04-25T14:36:51;3.57;;;1.33;;
36747;SDS011;22716;51.556;5.080;2023-04-25T14:39:20;4.63;;;1.27;;
36747;SDS011;22716;51.556;5.080;2023-04-25T14:41:48;1.37;;;0.83;;
36747;SDS011;22716;51.556;5.080;2023-04-25T14:44:17;4.17;;;0.97;;
36747;SDS011;22716;51.556;5.080;2023-04-25T14:46:46;1.98;;;0.73;;
36747;SDS011;22716;51.556;5.080;2023-04-25T14:49:16;4.05;;;0.75;;
36747;SDS011;22716;51.556;5.080;2023-04-25T14:51:46;3.00;;;0.95;;
36747;SDS011;22716;51.556;5.080;2023-04-25T14:54:18;2.08;;;0.88;;
36747;SDS011;22716;51.556;5.080;2023-04-25T14:56:47;3.78;;;1.23;;